createdAt,value
2024-02-09T00:00:41.768Z,0.91
2024-02-09T00:03:30.039Z,0.91
2024-02-09T00:05:57.937Z,0.91
2024-02-09T00:08:25.898Z,0.92
2024-02-09T00:10:54.072Z,0.93
2024-02-09T00:13:21.841Z,0.93
2024-02-09T00:15:49.901Z,0.93
2024-02-09T00:18:18.703Z,0.92
2024-02-09T00:20:48.543Z,0.91
2024-02-09T00:23:16.981Z,0.89
2024-02-09T00:25:44.988Z,0.88
2024-02-09T00:28:13.498Z,0.87
2024-02-09T00:30:42.394Z,0.86
2024-02-09T00:33:10.793Z,0.85
2024-02-09T00:35:42.451Z,0.85
2024-02-09T00:38:11.250Z,0.85
2024-02-09T00:40:40.556Z,0.85
2024-02-09T00:43:08.966Z,0.84
2024-02-09T00:45:36.814Z,0.83
2024-02-09T00:48:05.367Z,0.82
2024-02-09T00:50:33.796Z,0.82
2024-02-09T00:53:01.618Z,0.82
2024-02-09T00:55:30.801Z,0.81
2024-02-09T00:57:59.223Z,0.81
2024-02-09T01:00:31.898Z,0.80
2024-02-09T01:03:04.348Z,0.79
2024-02-09T01:05:34.373Z,0.79
2024-02-09T01:08:05.950Z,0.78
2024-02-09T01:10:33.836Z,0.78
2024-02-09T01:13:20.721Z,0.79
2024-02-09T01:16:07.319Z,0.79
2024-02-09T01:18:53.680Z,0.79
2024-02-09T01:21:40.443Z,0.79
2024-02-09T01:24:26.833Z,0.81
2024-02-09T01:27:13.490Z,0.81
2024-02-09T01:30:00.013Z,0.82
2024-02-09T01:32:46.728Z,0.82
2024-02-09T01:35:33.099Z,0.83
2024-02-09T01:38:19.455Z,0.83
2024-02-09T01:41:05.878Z,0.82
2024-02-09T01:43:52.823Z,0.82
2024-02-09T01:46:40.940Z,0.83
2024-02-09T01:49:27.349Z,0.83
2024-02-09T01:52:14.553Z,0.83
2024-02-09T01:55:01.042Z,0.81
2024-02-09T01:57:47.791Z,0.82
2024-02-09T02:00:34.305Z,0.81
2024-02-09T02:03:22.208Z,0.80
2024-02-09T02:06:09.331Z,0.79
2024-02-09T02:08:55.613Z,0.79
2024-02-09T02:11:41.810Z,0.79
2024-02-09T02:14:28.470Z,0.80
2024-02-09T02:17:14.951Z,0.80
2024-02-09T02:20:01.626Z,0.81
2024-02-09T02:22:51.889Z,0.82
2024-02-09T02:25:38.614Z,0.83
2024-02-09T02:28:30.418Z,0.83
2024-02-09T02:31:17.184Z,0.82
2024-02-09T02:34:04.050Z,0.81
2024-02-09T02:36:50.815Z,0.81
2024-02-09T02:39:37.111Z,0.79
2024-02-09T02:42:04.897Z,0.78
2024-02-09T02:44:32.615Z,0.79
2024-02-09T02:47:02.304Z,0.79
2024-02-09T02:49:49.672Z,0.80
2024-02-09T02:52:36.037Z,0.79
2024-02-09T02:55:22.930Z,0.78
2024-02-09T02:58:09.664Z,0.77
2024-02-09T03:00:56.268Z,0.75
2024-02-09T03:03:42.948Z,0.75
2024-02-09T03:06:12.035Z,0.73
2024-02-09T03:08:47.282Z,0.74
2024-02-09T03:11:18.397Z,0.74
2024-02-09T03:13:46.232Z,0.74
2024-02-09T03:16:18.528Z,0.75
2024-02-09T03:18:46.419Z,0.76
2024-02-09T03:21:21.211Z,0.76
2024-02-09T03:23:49.129Z,0.77
2024-02-09T03:26:16.885Z,0.77
2024-02-09T03:28:44.788Z,0.78
2024-02-09T03:31:14.074Z,0.79
2024-02-09T03:33:41.990Z,0.79
2024-02-09T03:36:10.310Z,0.80
2024-02-09T03:38:37.987Z,0.80
2024-02-09T03:41:06.158Z,0.80
2024-02-09T03:43:34.317Z,0.81
2024-02-09T03:46:02.397Z,0.81
2024-02-09T03:48:30.373Z,0.82
2024-02-09T03:50:58.261Z,0.83
2024-02-09T03:53:25.877Z,0.83
2024-02-09T03:55:53.563Z,0.83
2024-02-09T03:58:21.311Z,0.84
2024-02-09T04:00:49.080Z,0.84
2024-02-09T04:03:16.848Z,0.85
2024-02-09T04:05:47.023Z,0.84
2024-02-09T04:08:14.821Z,0.85
2024-02-09T04:10:44.441Z,0.85
2024-02-09T04:13:15.445Z,0.83
2024-02-09T04:15:43.324Z,0.85
2024-02-09T04:18:11.574Z,0.85
2024-02-09T04:20:39.937Z,0.86
2024-02-09T04:23:08.963Z,0.85
2024-02-09T04:25:38.016Z,0.86
2024-02-09T04:28:06.424Z,0.86
2024-02-09T04:30:34.329Z,0.84
2024-02-09T04:33:02.218Z,0.85
2024-02-09T04:35:30.098Z,0.85
2024-02-09T04:37:57.786Z,0.86
2024-02-09T04:40:26.747Z,0.89
2024-02-09T04:42:54.651Z,0.90
2024-02-09T04:45:23.837Z,0.91
2024-02-09T04:47:52.032Z,0.91
2024-02-09T04:50:22.479Z,0.91
2024-02-09T04:52:51.083Z,0.92
2024-02-09T04:55:19.504Z,0.93
2024-02-09T04:57:47.217Z,0.94
2024-02-09T05:00:15.253Z,0.94
2024-02-09T05:02:45.790Z,0.95
2024-02-09T05:05:14.223Z,0.95
2024-02-09T05:07:42.719Z,0.96
2024-02-09T05:10:12.777Z,0.97
2024-02-09T05:12:40.855Z,0.97
2024-02-09T05:15:09.078Z,0.97
2024-02-09T05:17:41.244Z,0.98
2024-02-09T05:20:10.137Z,0.99
2024-02-09T05:22:37.942Z,0.99
2024-02-09T05:25:06.356Z,1.00
2024-02-09T05:27:34.279Z,1.01
2024-02-09T05:30:02.160Z,1.03
2024-02-09T05:32:31.466Z,1.02
2024-02-09T05:34:59.482Z,1.04
2024-02-09T05:37:27.720Z,1.05
2024-02-09T05:39:57.783Z,1.06
2024-02-09T05:42:25.969Z,1.05
2024-02-09T05:44:53.810Z,1.06
2024-02-09T05:47:21.607Z,1.07
2024-02-09T05:49:49.558Z,1.06
2024-02-09T05:52:17.429Z,1.06
2024-02-09T05:54:45.205Z,1.06
2024-02-09T05:57:14.848Z,1.04
2024-02-09T05:59:45.215Z,1.02
2024-02-09T06:02:12.929Z,1.03
2024-02-09T06:04:41.362Z,1.03
2024-02-09T06:07:09.288Z,1.03
2024-02-09T06:09:38.316Z,1.04
2024-02-09T06:12:06.736Z,1.05
2024-02-09T06:14:34.847Z,1.05
2024-02-09T06:17:02.573Z,1.06
2024-02-09T06:19:30.759Z,1.07
2024-02-09T06:21:58.758Z,1.09
2024-02-09T06:24:26.774Z,1.09
2024-02-09T06:26:54.563Z,1.09
2024-02-09T06:29:22.794Z,1.12
2024-02-09T06:31:54.412Z,1.11
2024-02-09T06:34:23.454Z,1.11
2024-02-09T06:36:51.394Z,1.09
2024-02-09T06:39:19.204Z,1.11
2024-02-09T06:41:48.378Z,1.11
2024-02-09T06:44:16.428Z,1.11
2024-02-09T06:46:44.208Z,1.13
2024-02-09T06:49:12.153Z,1.14
2024-02-09T06:51:40.189Z,1.15
2024-02-09T06:54:08.018Z,1.14
2024-02-09T06:56:35.795Z,1.15
2024-02-09T06:59:05.942Z,1.15
2024-02-09T07:01:33.722Z,1.14
2024-02-09T07:04:01.733Z,1.13
2024-02-09T07:06:29.702Z,1.15
2024-02-09T07:08:57.463Z,1.16
2024-02-09T07:11:26.052Z,1.17
2024-02-09T07:13:54.004Z,1.17
2024-02-09T07:16:21.837Z,1.17
2024-02-09T07:18:49.784Z,1.18
2024-02-09T07:21:18.252Z,1.19
2024-02-09T07:23:51.774Z,1.20
2024-02-09T07:26:22.136Z,1.19
2024-02-09T07:28:50.423Z,1.20
2024-02-09T07:31:18.574Z,1.22
2024-02-09T07:33:48.042Z,1.23
2024-02-09T07:36:16.051Z,1.25
2024-02-09T07:38:44.203Z,1.25
2024-02-09T07:41:20.809Z,1.26
2024-02-09T07:43:49.041Z,1.25
2024-02-09T07:46:17.300Z,1.23
2024-02-09T07:48:46.003Z,1.27
2024-02-09T07:51:17.491Z,1.28
2024-02-09T07:53:54.139Z,1.28
2024-02-09T07:56:25.949Z,1.29
2024-02-09T07:58:53.898Z,1.30
2024-02-09T08:01:23.028Z,1.29
2024-02-09T08:03:54.776Z,1.30
2024-02-09T08:06:23.156Z,1.28
2024-02-09T08:08:54.528Z,1.29
2024-02-09T08:11:23.863Z,1.30
2024-02-09T08:13:55.429Z,1.30
2024-02-09T08:16:23.664Z,1.30
2024-02-09T08:18:51.857Z,1.32
2024-02-09T08:21:20.074Z,1.32
2024-02-09T08:23:47.902Z,1.36
2024-02-09T08:26:15.851Z,1.38
2024-02-09T08:28:48.597Z,1.38
2024-02-09T08:31:18.398Z,1.39
2024-02-09T08:33:50.584Z,1.39
2024-02-09T08:36:22.630Z,1.39
2024-02-09T08:38:51.687Z,1.40
2024-02-09T08:41:19.908Z,1.41
2024-02-09T08:43:48.224Z,1.43
2024-02-09T08:46:16.521Z,1.45
2024-02-09T08:48:44.600Z,1.46
2024-02-09T08:51:12.583Z,1.45
2024-02-09T08:53:41.863Z,1.46
2024-02-09T08:56:13.211Z,1.46
2024-02-09T08:58:42.898Z,1.46
2024-02-09T09:01:11.061Z,1.45
2024-02-09T09:03:39.166Z,1.46
2024-02-09T09:06:08.801Z,1.47
2024-02-09T09:08:36.876Z,1.46
2024-02-09T09:11:04.868Z,1.47
2024-02-09T09:13:32.895Z,1.47
2024-02-09T09:16:00.868Z,1.47
2024-02-09T09:18:30.635Z,1.45
2024-02-09T09:20:58.585Z,1.47
2024-02-09T09:23:26.422Z,1.47
2024-02-09T09:25:54.518Z,1.47
2024-02-09T09:28:22.798Z,1.48
2024-02-09T09:30:50.650Z,1.49
2024-02-09T09:33:18.420Z,1.49
2024-02-09T09:35:48.229Z,1.51
2024-02-09T09:38:20.070Z,1.52
2024-02-09T09:40:54.494Z,1.53
2024-02-09T09:43:23.222Z,1.52
2024-02-09T09:45:54.697Z,1.51
2024-02-09T09:48:22.499Z,1.51
2024-02-09T09:50:52.040Z,1.50
2024-02-09T09:53:22.697Z,1.48
2024-02-09T09:55:50.857Z,1.45
2024-02-09T09:58:18.983Z,1.43
2024-02-09T10:00:47.897Z,1.43
2024-02-09T10:03:16.067Z,1.45
2024-02-09T10:05:46.991Z,1.46
2024-02-09T10:08:14.920Z,1.46
2024-02-09T10:10:43.225Z,1.47
2024-02-09T10:13:12.663Z,1.47
2024-02-09T10:15:48.569Z,1.47
2024-02-09T10:18:16.377Z,1.47
2024-02-09T10:20:47.534Z,1.48
2024-02-09T10:23:16.681Z,1.48
2024-02-09T10:25:45.189Z,1.49
2024-02-09T10:28:14.182Z,1.46
2024-02-09T10:30:42.797Z,1.45
2024-02-09T10:33:13.584Z,1.43
2024-02-09T10:35:41.848Z,1.41
2024-02-09T10:38:09.892Z,1.41
2024-02-09T10:40:37.885Z,1.42
2024-02-09T10:43:05.832Z,1.45
2024-02-09T10:45:34.496Z,1.45
2024-02-09T10:48:03.686Z,1.44
2024-02-09T10:50:32.644Z,1.44
2024-02-09T10:53:02.163Z,1.45
2024-02-09T10:55:39.030Z,1.44
2024-02-09T10:58:08.887Z,1.44
2024-02-09T11:00:39.447Z,1.44
2024-02-09T11:03:08.300Z,1.45
2024-02-09T11:05:38.201Z,1.45
2024-02-09T11:08:07.025Z,1.47
2024-02-09T11:10:35.178Z,1.48
2024-02-09T11:13:03.573Z,1.50
2024-02-09T11:15:33.394Z,1.50
2024-02-09T11:18:01.733Z,1.52
2024-02-09T11:20:31.504Z,1.52
2024-02-09T11:23:01.637Z,1.52
2024-02-09T11:25:34.001Z,1.51
2024-02-09T11:28:07.169Z,1.51
2024-02-09T11:30:35.370Z,1.52
2024-02-09T11:33:03.201Z,1.52
2024-02-09T11:35:31.256Z,1.54
2024-02-09T11:37:59.332Z,1.55
2024-02-09T11:40:27.050Z,1.55
2024-02-09T11:42:54.924Z,1.55
2024-02-09T11:45:22.785Z,1.56
2024-02-09T11:47:52.021Z,1.57
2024-02-09T11:50:21.876Z,1.56
2024-02-09T11:53:01.321Z,1.56
2024-02-09T11:55:40.971Z,1.56
2024-02-09T11:58:09.915Z,1.58
2024-02-09T12:00:39.692Z,1.58
2024-02-09T12:03:09.506Z,1.58
2024-02-09T12:05:38.595Z,1.60
2024-02-09T12:08:07.257Z,1.60
2024-02-09T12:10:37.214Z,1.61
2024-02-09T12:13:06.464Z,1.60
2024-02-09T12:15:35.008Z,1.61
2024-02-09T12:18:03.481Z,1.63
2024-02-09T12:20:33.778Z,1.64
2024-02-09T12:23:05.705Z,1.64
2024-02-09T12:25:38.902Z,1.64
2024-02-09T12:28:11.127Z,1.64
2024-02-09T12:30:42.722Z,1.63
2024-02-09T12:33:13.360Z,1.64
2024-02-09T12:35:42.593Z,1.63
2024-02-09T12:38:11.381Z,1.62
2024-02-09T12:40:42.952Z,1.62
2024-02-09T12:43:13.281Z,1.62
2024-02-09T12:45:41.013Z,1.62
2024-02-09T12:48:09.223Z,1.62
2024-02-09T12:50:39.215Z,1.62
2024-02-09T12:53:07.264Z,1.62
2024-02-09T12:55:35.350Z,1.63
2024-02-09T12:58:06.380Z,1.63
2024-02-09T13:00:34.774Z,1.63
2024-02-09T13:03:02.770Z,1.62
2024-02-09T13:05:32.124Z,1.62
2024-02-09T13:08:00.766Z,1.64
2024-02-09T13:10:28.601Z,1.64
2024-02-09T13:12:56.341Z,1.64
2024-02-09T13:15:26.175Z,1.65
2024-02-09T13:17:57.874Z,1.64
2024-02-09T13:20:26.879Z,1.62
2024-02-09T13:22:56.548Z,1.62
2024-02-09T13:25:24.591Z,1.62
2024-02-09T13:27:52.709Z,1.63
2024-02-09T13:30:21.690Z,1.64
2024-02-09T13:32:49.728Z,1.63
2024-02-09T13:35:18.996Z,1.64
2024-02-09T13:37:47.088Z,1.64
2024-02-09T13:40:17.679Z,1.65
2024-02-09T13:42:50.857Z,1.64
2024-02-09T13:45:22.736Z,1.65
2024-02-09T13:47:53.203Z,1.65
2024-02-09T13:50:25.376Z,1.66
2024-02-09T13:52:55.661Z,1.66
2024-02-09T13:55:26.210Z,1.68
2024-02-09T13:57:55.752Z,1.68
2024-02-09T14:00:25.613Z,1.67
2024-02-09T14:02:53.452Z,1.68
2024-02-09T14:05:23.686Z,1.68
2024-02-09T14:07:52.783Z,1.68
2024-02-09T14:10:21.268Z,1.68
2024-02-09T14:12:49.327Z,1.68
2024-02-09T14:15:17.443Z,1.68
2024-02-09T14:17:46.876Z,1.68
2024-02-09T14:20:16.829Z,1.70
2024-02-09T14:22:44.775Z,1.70
2024-02-09T14:25:14.120Z,1.73
2024-02-09T14:27:43.341Z,1.71
2024-02-09T14:30:12.988Z,1.72
2024-02-09T14:32:40.771Z,1.73
2024-02-09T14:35:08.738Z,1.73
2024-02-09T14:37:36.567Z,1.74
2024-02-09T14:40:04.802Z,1.76
2024-02-09T14:42:32.661Z,1.77
2024-02-09T14:45:01.259Z,1.78
2024-02-09T14:47:30.422Z,1.78
2024-02-09T14:49:58.324Z,1.79
2024-02-09T14:52:28.600Z,1.81
2024-02-09T14:54:56.385Z,1.81
2024-02-09T14:57:24.093Z,1.81
2024-02-09T14:59:52.304Z,1.81
2024-02-09T15:02:20.218Z,1.82
2024-02-09T15:04:51.318Z,1.82
2024-02-09T15:07:22.223Z,1.83
2024-02-09T15:09:50.487Z,1.84
2024-02-09T15:12:19.998Z,1.86
2024-02-09T15:14:52.442Z,1.86
2024-02-09T15:17:24.129Z,1.89
2024-02-09T15:19:52.203Z,1.93
2024-02-09T15:22:20.218Z,1.93
2024-02-09T15:24:48.181Z,1.93
2024-02-09T15:27:16.053Z,1.95
2024-02-09T15:29:43.770Z,1.98
2024-02-09T15:32:14.196Z,2.00
2024-02-09T15:34:45.794Z,2.01
2024-02-09T15:37:14.959Z,2.01
2024-02-09T15:39:43.117Z,2.01
2024-02-09T15:42:10.857Z,2.02
2024-02-09T15:44:40.124Z,2.03
2024-02-09T15:47:07.867Z,2.05
2024-02-09T15:49:36.724Z,2.06
2024-02-09T15:52:04.765Z,2.08
2024-02-09T15:54:32.570Z,2.09
2024-02-09T15:57:00.423Z,2.10
2024-02-09T15:59:28.362Z,2.13
2024-02-09T16:01:56.683Z,2.14
2024-02-09T16:04:27.145Z,2.15
2024-02-09T16:06:57.050Z,2.14
2024-02-09T16:09:24.706Z,2.12
2024-02-09T16:11:52.372Z,2.11
2024-02-09T16:14:20.106Z,2.11
2024-02-09T16:16:47.868Z,2.13
2024-02-09T16:19:15.690Z,2.17
2024-02-09T16:21:43.511Z,2.18
2024-02-09T16:24:11.676Z,2.18
2024-02-09T16:26:40.495Z,2.19
2024-02-09T16:29:12.465Z,2.18
2024-02-09T16:31:41.612Z,2.19
2024-02-09T16:34:09.580Z,2.18
2024-02-09T16:36:40.708Z,2.18
2024-02-09T16:39:08.529Z,2.17
2024-02-09T16:41:36.214Z,2.17
2024-02-09T16:44:04.524Z,2.16
2024-02-09T16:46:32.300Z,2.17
2024-02-09T16:49:01.297Z,2.17
2024-02-09T16:51:29.237Z,2.17
2024-02-09T16:53:58.804Z,2.18
2024-02-09T16:56:26.726Z,2.19
2024-02-09T16:58:54.709Z,2.20
2024-02-09T17:01:23.233Z,2.21
2024-02-09T17:03:52.215Z,2.22
2024-02-09T17:06:20.685Z,2.23
2024-02-09T17:08:48.618Z,2.23
2024-02-09T17:11:16.392Z,2.24
2024-02-09T17:13:46.840Z,2.26
2024-02-09T17:16:14.649Z,2.29
2024-02-09T17:18:43.396Z,2.31
2024-02-09T17:21:14.046Z,2.32
2024-02-09T17:23:42.381Z,2.34
2024-02-09T17:26:11.111Z,2.35
2024-02-09T17:28:39.017Z,2.35
2024-02-09T17:31:08.693Z,2.36
2024-02-09T17:33:36.766Z,2.38
2024-02-09T17:36:05.508Z,2.42
2024-02-09T17:38:34.879Z,2.47
2024-02-09T17:41:10.605Z,2.51
2024-02-09T17:43:41.387Z,2.55
2024-02-09T17:46:09.156Z,2.59
2024-02-09T17:48:37.532Z,2.65
2024-02-09T17:51:07.522Z,2.70
2024-02-09T17:53:35.674Z,2.72
2024-02-09T17:56:04.240Z,2.74
2024-02-09T17:58:32.142Z,2.77
2024-02-09T18:01:00.034Z,2.77
2024-02-09T18:03:27.901Z,2.77
2024-02-09T18:05:55.797Z,2.77
2024-02-09T18:08:23.653Z,2.77
2024-02-09T18:10:51.447Z,2.77
2024-02-09T18:13:19.332Z,2.79
2024-02-09T18:15:47.193Z,2.83
2024-02-09T18:18:15.253Z,2.84
2024-02-09T18:20:43.577Z,2.86
2024-02-09T18:23:11.419Z,2.90
2024-02-09T18:25:39.140Z,2.92
2024-02-09T18:28:06.909Z,2.92
2024-02-09T18:30:35.846Z,2.91
2024-02-09T18:33:04.338Z,2.93
2024-02-09T18:35:33.789Z,2.96
2024-02-09T18:38:01.624Z,3.00
2024-02-09T18:40:31.911Z,3.05
2024-02-09T18:42:59.827Z,3.10
2024-02-09T18:45:27.636Z,3.12
2024-02-09T18:47:55.388Z,3.14
2024-02-09T18:50:23.227Z,3.14
2024-02-09T18:52:51.781Z,3.14
2024-02-09T18:55:20.462Z,3.15
2024-02-09T18:57:49.415Z,3.17
2024-02-09T19:00:17.313Z,3.19
2024-02-09T19:02:45.096Z,3.21
2024-02-09T19:05:14.959Z,3.25
2024-02-09T19:07:43.152Z,3.30
2024-02-09T19:10:11.970Z,3.36
2024-02-09T19:12:39.832Z,3.42
2024-02-09T19:15:11.217Z,3.48
2024-02-09T19:17:40.227Z,3.55
2024-02-09T19:20:12.647Z,3.61
2024-02-09T19:22:40.464Z,3.65
2024-02-09T19:25:08.546Z,3.71
2024-02-09T19:27:36.340Z,3.77
2024-02-09T19:30:04.712Z,3.83
2024-02-09T19:32:32.464Z,3.87
2024-02-09T19:35:00.530Z,3.92
2024-02-09T19:37:29.598Z,3.97
2024-02-09T19:39:57.432Z,4.03
2024-02-09T19:42:27.524Z,4.08
2024-02-09T19:44:56.711Z,4.11
2024-02-09T19:47:24.863Z,4.13
2024-02-09T19:49:53.776Z,4.14
2024-02-09T19:52:21.844Z,4.14
2024-02-09T19:54:50.213Z,4.13
2024-02-09T19:57:18.384Z,4.11
2024-02-09T19:59:50.468Z,4.10
2024-02-09T20:02:24.994Z,4.08
2024-02-09T20:04:59.594Z,4.08
2024-02-09T20:07:29.295Z,4.09
2024-02-09T20:09:59.048Z,4.11
2024-02-09T20:12:26.984Z,4.14
2024-02-09T20:14:56.049Z,4.16
2024-02-09T20:17:27.373Z,4.18
2024-02-09T20:19:55.342Z,4.21
2024-02-09T20:22:23.288Z,4.25
2024-02-09T20:24:51.200Z,4.28
2024-02-09T20:27:19.804Z,4.30
2024-02-09T20:29:47.642Z,4.33
2024-02-09T20:32:15.388Z,4.36
2024-02-09T20:34:44.226Z,4.40
2024-02-09T20:37:15.683Z,4.45
2024-02-09T20:39:43.636Z,4.49
2024-02-09T20:42:11.607Z,4.53
2024-02-09T20:44:41.570Z,4.53
2024-02-09T20:47:11.212Z,4.53
2024-02-09T20:49:42.794Z,4.53
2024-02-09T20:52:13.062Z,4.54
2024-02-09T20:54:42.067Z,4.53
2024-02-09T20:57:10.027Z,4.51
2024-02-09T20:59:42.036Z,4.52
2024-02-09T21:02:13.950Z,4.51
2024-02-09T21:04:43.251Z,4.50
2024-02-09T21:07:11.369Z,4.49
2024-02-09T21:09:39.357Z,4.48
2024-02-09T21:12:11.085Z,4.44
2024-02-09T21:14:39.053Z,4.41
2024-02-09T21:17:06.994Z,4.40
2024-02-09T21:19:36.968Z,4.40
2024-02-09T21:22:05.948Z,4.39
2024-02-09T21:24:33.626Z,4.39
2024-02-09T21:27:01.565Z,4.40
2024-02-09T21:29:29.340Z,4.40
2024-02-09T21:31:59.642Z,4.43
2024-02-09T21:34:28.081Z,4.45
2024-02-09T21:36:55.938Z,4.46
2024-02-09T21:39:23.586Z,4.48
2024-02-09T21:41:51.315Z,4.49
2024-02-09T21:44:20.476Z,4.51
2024-02-09T21:46:49.160Z,4.52
2024-02-09T21:49:17.071Z,4.55
2024-02-09T21:51:45.292Z,4.56
2024-02-09T21:54:14.592Z,4.57
2024-02-09T21:56:44.652Z,4.59
2024-02-09T21:59:15.408Z,4.61
2024-02-09T22:01:43.487Z,4.62
2024-02-09T22:04:11.244Z,4.61
2024-02-09T22:06:39.895Z,4.62
2024-02-09T22:09:07.608Z,4.64
2024-02-09T22:11:36.280Z,4.67
2024-02-09T22:14:11.524Z,4.70
2024-02-09T22:16:41.145Z,4.72
2024-02-09T22:19:09.787Z,4.72
2024-02-09T22:21:37.731Z,4.73
2024-02-09T22:24:05.634Z,4.73
2024-02-09T22:26:33.535Z,4.73
2024-02-09T22:29:01.347Z,4.75
2024-02-09T22:31:31.061Z,4.77
2024-02-09T22:33:58.843Z,4.78
2024-02-09T22:36:27.201Z,4.77
2024-02-09T22:38:55.076Z,4.77
2024-02-09T22:41:25.176Z,4.78
2024-02-09T22:43:56.264Z,4.80
2024-02-09T22:46:25.402Z,4.85
2024-02-09T22:48:53.406Z,4.89
2024-02-09T22:51:21.158Z,4.92
2024-02-09T22:53:52.837Z,4.95
2024-02-09T22:56:22.170Z,4.96
2024-02-09T22:58:50.557Z,4.97
2024-02-09T23:01:18.806Z,4.98
2024-02-09T23:03:49.453Z,5.00
2024-02-09T23:06:20.930Z,5.03
2024-02-09T23:08:51.123Z,5.05
2024-02-09T23:11:19.280Z,5.07
2024-02-09T23:13:47.213Z,5.12
2024-02-09T23:16:19.720Z,5.17
2024-02-09T23:18:47.850Z,5.20
2024-02-09T23:21:15.624Z,5.24
2024-02-09T23:23:44.847Z,5.29
2024-02-09T23:26:14.665Z,5.33
2024-02-09T23:28:42.481Z,5.37
2024-02-09T23:31:10.331Z,5.40
2024-02-09T23:33:38.289Z,5.43
2024-02-09T23:36:06.312Z,5.44
2024-02-09T23:38:34.551Z,5.45
2024-02-09T23:41:02.854Z,5.45
2024-02-09T23:43:38.613Z,5.46
2024-02-09T23:46:09.983Z,5.46
2024-02-09T23:48:39.941Z,5.46
2024-02-09T23:51:10.370Z,5.49
2024-02-09T23:53:40.144Z,5.51
2024-02-09T23:56:08.971Z,5.56
2024-02-09T23:58:36.900Z,5.60
